sensor_id;sensor_type;location;lat;lon;timestamp;P1;durP1;ratioP1;P2;durP2;ratioP2
6642;SDS011;3357;48.050;7.800;2023-03-19T00:01:14;3.83;;;2.13;;
6642;SDS011;3357;48.050;7.800;2023-03-19T00:03:40;2.00;;;1.83;;
6642;SDS011;3357;48.050;7.800;2023-03-19T00:06:05;6.07;;;3.40;;
6642;SDS011;3357;48.050;7.800;2023-03-19T00:08:31;6.47;;;3.33;;
6642;SDS011;3357;48.050;7.800;2023-03-19T00:10:56;3.03;;;2.23;;
6642;SDS011;3357;48.050;7.800;2023-03-19T00:13:21;3.73;;;2.10;;
6642;SDS011;3357;48.050;7.800;2023-03-19T00:15:47;4.20;;;2.27;;
6642;SDS011;3357;48.050;7.800;2023-03-19T00:18:12;4.20;;;2.30;;
6642;SDS011;3357;48.050;7.800;2023-03-19T00:20:37;4.63;;;2.23;;
6642;SDS011;3357;48.050;7.800;2023-03-19T00:23:04;2.50;;;2.00;;
6642;SDS011;3357;48.050;7.800;2023-03-19T00:25:30;4.57;;;3.20;;
6642;SDS011;3357;48.050;7.800;2023-03-19T00:27:55;9.10;;;5.97;;
6642;SDS011;3357;48.050;7.800;2023-03-19T00:30:21;8.60;;;2.27;;
6642;SDS011;3357;48.050;7.800;2023-03-19T00:32:48;3.00;;;1.70;;
6642;SDS011;3357;48.050;7.800;2023-03-19T00:35:13;4.20;;;2.13;;
6642;SDS011;3357;48.050;7.800;2023-03-19T00:37:39;3.40;;;1.80;;
6642;SDS011;3357;48.050;7.800;2023-03-19T00:40:04;3.03;;;2.10;;
6642;SDS011;3357;48.050;7.800;2023-03-19T00:42:30;2.57;;;1.80;;
6642;SDS011;3357;48.050;7.800;2023-03-19T00:44:55;3.23;;;1.90;;
6642;SDS011;3357;48.050;7.800;2023-03-19T00:47:21;4.37;;;2.13;;
6642;SDS011;3357;48.050;7.800;2023-03-19T00:49:47;2.00;;;1.80;;
6642;SDS011;3357;48.050;7.800;2023-03-19T00:52:12;4.43;;;2.00;;
6642;SDS011;3357;48.050;7.800;2023-03-19T00:54:38;1.97;;;1.70;;
6642;SDS011;3357;48.050;7.800;2023-03-19T00:57:03;2.70;;;1.43;;
6642;SDS011;3357;48.050;7.800;2023-03-19T00:59:28;3.07;;;1.40;;
6642;SDS011;3357;48.050;7.800;2023-03-19T01:01:53;2.10;;;1.50;;
6642;SDS011;3357;48.050;7.800;2023-03-19T01:04:19;1.27;;;1.17;;
6642;SDS011;3357;48.050;7.800;2023-03-19T01:06:44;2.17;;;1.50;;
6642;SDS011;3357;48.050;7.800;2023-03-19T01:09:09;1.50;;;1.40;;
6642;SDS011;3357;48.050;7.800;2023-03-19T01:11:35;2.57;;;1.10;;
6642;SDS011;3357;48.050;7.800;2023-03-19T01:14:00;1.30;;;1.20;;
6642;SDS011;3357;48.050;7.800;2023-03-19T01:16:26;1.73;;;1.50;;
6642;SDS011;3357;48.050;7.800;2023-03-19T01:18:52;1.70;;;1.30;;
6642;SDS011;3357;48.050;7.800;2023-03-19T01:21:17;4.40;;;1.60;;
6642;SDS011;3357;48.050;7.800;2023-03-19T01:23:43;6.13;;;1.53;;
6642;SDS011;3357;48.050;7.800;2023-03-19T01:26:08;2.60;;;1.40;;
6642;SDS011;3357;48.050;7.800;2023-03-19T01:28:34;1.50;;;1.40;;
6642;SDS011;3357;48.050;7.800;2023-03-19T01:31:00;2.33;;;1.60;;
6642;SDS011;3357;48.050;7.800;2023-03-19T01:33:25;2.03;;;1.50;;
6642;SDS011;3357;48.050;7.800;2023-03-19T01:35:51;3.87;;;1.57;;
6642;SDS011;3357;48.050;7.800;2023-03-19T01:38:16;1.70;;;1.40;;
6642;SDS011;3357;48.050;7.800;2023-03-19T01:40:42;7.20;;;2.37;;
6642;SDS011;3357;48.050;7.800;2023-03-19T01:43:19;1.53;;;1.43;;
6642;SDS011;3357;48.050;7.800;2023-03-19T01:45:46;3.50;;;1.60;;
6642;SDS011;3357;48.050;7.800;2023-03-19T01:48:19;2.30;;;1.20;;
6642;SDS011;3357;48.050;7.800;2023-03-19T01:50:49;2.17;;;1.60;;
6642;SDS011;3357;48.050;7.800;2023-03-19T01:53:17;8.80;;;1.83;;
6642;SDS011;3357;48.050;7.800;2023-03-19T01:55:45;4.40;;;1.40;;
6642;SDS011;3357;48.050;7.800;2023-03-19T01:58:11;2.40;;;1.10;;
6642;SDS011;3357;48.050;7.800;2023-03-19T02:00:36;3.13;;;1.30;;
6642;SDS011;3357;48.050;7.800;2023-03-19T02:03:03;1.33;;;1.23;;
6642;SDS011;3357;48.050;7.800;2023-03-19T02:05:30;1.60;;;1.50;;
6642;SDS011;3357;48.050;7.800;2023-03-19T02:07:57;4.73;;;1.40;;
6642;SDS011;3357;48.050;7.800;2023-03-19T02:10:25;2.40;;;1.37;;
6642;SDS011;3357;48.050;7.800;2023-03-19T02:12:51;1.67;;;1.30;;
6642;SDS011;3357;48.050;7.800;2023-03-19T02:15:16;1.40;;;1.30;;
6642;SDS011;3357;48.050;7.800;2023-03-19T02:17:42;1.03;;;1.03;;
6642;SDS011;3357;48.050;7.800;2023-03-19T02:22:54;1.73;;;1.47;;
6642;SDS011;3357;48.050;7.800;2023-03-19T02:25:27;1.20;;;1.10;;
6642;SDS011;3357;48.050;7.800;2023-03-19T02:27:57;1.37;;;1.30;;
6642;SDS011;3357;48.050;7.800;2023-03-19T02:30:24;2.67;;;1.27;;
6642;SDS011;3357;48.050;7.800;2023-03-19T02:32:51;2.27;;;1.37;;
6642;SDS011;3357;48.050;7.800;2023-03-19T02:35:16;1.00;;;1.00;;
6642;SDS011;3357;48.050;7.800;2023-03-19T02:37:41;3.43;;;1.20;;
6642;SDS011;3357;48.050;7.800;2023-03-19T02:40:10;1.67;;;1.10;;
6642;SDS011;3357;48.050;7.800;2023-03-19T02:42:39;5.60;;;1.03;;
6642;SDS011;3357;48.050;7.800;2023-03-19T02:45:05;1.77;;;1.50;;
6642;SDS011;3357;48.050;7.800;2023-03-19T02:47:31;1.13;;;1.00;;
6642;SDS011;3357;48.050;7.800;2023-03-19T02:49:56;4.67;;;1.90;;
6642;SDS011;3357;48.050;7.800;2023-03-19T02:52:21;5.30;;;1.70;;
6642;SDS011;3357;48.050;7.800;2023-03-19T02:54:47;1.67;;;1.20;;
6642;SDS011;3357;48.050;7.800;2023-03-19T02:57:12;2.33;;;1.20;;
6642;SDS011;3357;48.050;7.800;2023-03-19T02:59:37;2.13;;;1.40;;
6642;SDS011;3357;48.050;7.800;2023-03-19T03:02:03;1.83;;;1.00;;
6642;SDS011;3357;48.050;7.800;2023-03-19T03:04:29;1.10;;;0.93;;
6642;SDS011;3357;48.050;7.800;2023-03-19T03:06:55;0.97;;;0.90;;
6642;SDS011;3357;48.050;7.800;2023-03-19T03:09:20;3.27;;;0.90;;
6642;SDS011;3357;48.050;7.800;2023-03-19T03:11:46;1.03;;;0.97;;
6642;SDS011;3357;48.050;7.800;2023-03-19T03:14:11;1.20;;;0.87;;
6642;SDS011;3357;48.050;7.800;2023-03-19T03:16:37;0.83;;;0.83;;
6642;SDS011;3357;48.050;7.800;2023-03-19T03:19:03;1.37;;;0.97;;
6642;SDS011;3357;48.050;7.800;2023-03-19T03:21:28;1.90;;;1.37;;
6642;SDS011;3357;48.050;7.800;2023-03-19T03:23:54;1.70;;;0.93;;
6642;SDS011;3357;48.050;7.800;2023-03-19T03:26:20;2.27;;;0.90;;
6642;SDS011;3357;48.050;7.800;2023-03-19T03:28:45;2.00;;;1.00;;
6642;SDS011;3357;48.050;7.800;2023-03-19T03:31:11;1.03;;;0.83;;
6642;SDS011;3357;48.050;7.800;2023-03-19T03:33:37;2.07;;;1.13;;
6642;SDS011;3357;48.050;7.800;2023-03-19T03:36:03;2.67;;;0.90;;
6642;SDS011;3357;48.050;7.800;2023-03-19T03:38:28;1.00;;;1.00;;
6642;SDS011;3357;48.050;7.800;2023-03-19T03:40:53;1.33;;;0.90;;
6642;SDS011;3357;48.050;7.800;2023-03-19T03:43:19;1.10;;;1.00;;
6642;SDS011;3357;48.050;7.800;2023-03-19T03:45:45;1.37;;;0.80;;
6642;SDS011;3357;48.050;7.800;2023-03-19T03:48:11;3.53;;;1.00;;
6642;SDS011;3357;48.050;7.800;2023-03-19T03:50:37;1.07;;;0.80;;
6642;SDS011;3357;48.050;7.800;2023-03-19T03:53:02;1.90;;;1.00;;
6642;SDS011;3357;48.050;7.800;2023-03-19T03:55:28;0.97;;;0.90;;
6642;SDS011;3357;48.050;7.800;2023-03-19T03:57:54;3.67;;;1.20;;
6642;SDS011;3357;48.050;7.800;2023-03-19T04:00:19;2.30;;;1.17;;
6642;SDS011;3357;48.050;7.800;2023-03-19T04:02:45;1.27;;;1.17;;
6642;SDS011;3357;48.050;7.800;2023-03-19T04:05:10;4.53;;;0.90;;
6642;SDS011;3357;48.050;7.800;2023-03-19T04:07:36;0.90;;;0.90;;
6642;SDS011;3357;48.050;7.800;2023-03-19T04:10:02;1.10;;;1.10;;
6642;SDS011;3357;48.050;7.800;2023-03-19T04:12:28;2.10;;;1.10;;
6642;SDS011;3357;48.050;7.800;2023-03-19T04:14:53;1.63;;;1.10;;
6642;SDS011;3357;48.050;7.800;2023-03-19T04:17:18;2.40;;;0.90;;
6642;SDS011;3357;48.050;7.800;2023-03-19T04:19:44;1.77;;;1.00;;
6642;SDS011;3357;48.050;7.800;2023-03-19T04:22:09;1.57;;;1.00;;
6642;SDS011;3357;48.050;7.800;2023-03-19T04:24:34;1.30;;;1.00;;
6642;SDS011;3357;48.050;7.800;2023-03-19T04:27:00;3.33;;;0.97;;
6642;SDS011;3357;48.050;7.800;2023-03-19T04:29:25;1.23;;;1.00;;
6642;SDS011;3357;48.050;7.800;2023-03-19T04:31:51;1.30;;;1.10;;
6642;SDS011;3357;48.050;7.800;2023-03-19T04:34:16;2.00;;;1.00;;
6642;SDS011;3357;48.050;7.800;2023-03-19T04:36:42;0.97;;;0.97;;
6642;SDS011;3357;48.050;7.800;2023-03-19T04:39:07;1.20;;;1.10;;
6642;SDS011;3357;48.050;7.800;2023-03-19T04:41:33;1.20;;;1.10;;
6642;SDS011;3357;48.050;7.800;2023-03-19T04:43:59;1.30;;;1.20;;
6642;SDS011;3357;48.050;7.800;2023-03-19T04:46:25;1.10;;;0.80;;
6642;SDS011;3357;48.050;7.800;2023-03-19T04:48:50;1.20;;;1.00;;
6642;SDS011;3357;48.050;7.800;2023-03-19T04:51:16;5.30;;;1.00;;
6642;SDS011;3357;48.050;7.800;2023-03-19T04:53:41;1.93;;;0.90;;
6642;SDS011;3357;48.050;7.800;2023-03-19T04:56:07;1.30;;;1.10;;
6642;SDS011;3357;48.050;7.800;2023-03-19T04:58:32;1.33;;;0.93;;
6642;SDS011;3357;48.050;7.800;2023-03-19T05:00:58;4.33;;;1.00;;
6642;SDS011;3357;48.050;7.800;2023-03-19T05:03:23;1.00;;;0.90;;
6642;SDS011;3357;48.050;7.800;2023-03-19T05:05:49;2.10;;;0.90;;
6642;SDS011;3357;48.050;7.800;2023-03-19T05:08:14;0.93;;;0.80;;
6642;SDS011;3357;48.050;7.800;2023-03-19T05:10:39;1.57;;;0.80;;
6642;SDS011;3357;48.050;7.800;2023-03-19T05:13:05;3.70;;;0.87;;
6642;SDS011;3357;48.050;7.800;2023-03-19T05:15:31;1.60;;;1.07;;
6642;SDS011;3357;48.050;7.800;2023-03-19T05:17:56;2.47;;;1.10;;
6642;SDS011;3357;48.050;7.800;2023-03-19T05:20:22;0.93;;;0.90;;
6642;SDS011;3357;48.050;7.800;2023-03-19T05:22:47;1.10;;;0.80;;
6642;SDS011;3357;48.050;7.800;2023-03-19T05:25:13;1.53;;;1.03;;
6642;SDS011;3357;48.050;7.800;2023-03-19T05:27:38;4.77;;;1.13;;
6642;SDS011;3357;48.050;7.800;2023-03-19T05:30:04;1.73;;;1.20;;
6642;SDS011;3357;48.050;7.800;2023-03-19T05:32:30;3.70;;;0.90;;
6642;SDS011;3357;48.050;7.800;2023-03-19T05:34:56;1.53;;;1.00;;
6642;SDS011;3357;48.050;7.800;2023-03-19T05:37:22;1.53;;;1.00;;
6642;SDS011;3357;48.050;7.800;2023-03-19T05:39:47;1.53;;;0.90;;
6642;SDS011;3357;48.050;7.800;2023-03-19T05:42:13;4.97;;;1.67;;
6642;SDS011;3357;48.050;7.800;2023-03-19T05:44:38;1.23;;;0.80;;
6642;SDS011;3357;48.050;7.800;2023-03-19T05:47:04;2.70;;;0.90;;
6642;SDS011;3357;48.050;7.800;2023-03-19T05:49:29;0.80;;;0.80;;
6642;SDS011;3357;48.050;7.800;2023-03-19T05:51:55;1.20;;;0.90;;
6642;SDS011;3357;48.050;7.800;2023-03-19T05:54:20;1.40;;;1.30;;
6642;SDS011;3357;48.050;7.800;2023-03-19T05:56:45;5.70;;;0.90;;
6642;SDS011;3357;48.050;7.800;2023-03-19T05:59:10;1.37;;;1.00;;
6642;SDS011;3357;48.050;7.800;2023-03-19T06:01:36;1.07;;;0.87;;
6642;SDS011;3357;48.050;7.800;2023-03-19T06:04:01;3.60;;;1.10;;
6642;SDS011;3357;48.050;7.800;2023-03-19T06:06:26;2.50;;;1.30;;
6642;SDS011;3357;48.050;7.800;2023-03-19T06:08:51;6.50;;;1.10;;
6642;SDS011;3357;48.050;7.800;2023-03-19T06:11:17;1.97;;;0.90;;
6642;SDS011;3357;48.050;7.800;2023-03-19T06:13:42;10.03;;;1.17;;
6642;SDS011;3357;48.050;7.800;2023-03-19T06:16:08;1.40;;;1.27;;
6642;SDS011;3357;48.050;7.800;2023-03-19T06:18:33;1.17;;;1.07;;
6642;SDS011;3357;48.050;7.800;2023-03-19T06:20:59;2.33;;;1.00;;
6642;SDS011;3357;48.050;7.800;2023-03-19T06:23:24;4.37;;;1.00;;
6642;SDS011;3357;48.050;7.800;2023-03-19T06:25:50;1.20;;;1.10;;
6642;SDS011;3357;48.050;7.800;2023-03-19T06:28:15;5.33;;;1.20;;
6642;SDS011;3357;48.050;7.800;2023-03-19T06:30:41;1.00;;;0.90;;
6642;SDS011;3357;48.050;7.800;2023-03-19T06:33:06;2.40;;;1.10;;
6642;SDS011;3357;48.050;7.800;2023-03-19T06:35:31;1.70;;;1.10;;
6642;SDS011;3357;48.050;7.800;2023-03-19T06:37:57;1.00;;;0.90;;
6642;SDS011;3357;48.050;7.800;2023-03-19T06:40:22;2.63;;;1.77;;
6642;SDS011;3357;48.050;7.800;2023-03-19T06:42:47;1.90;;;1.57;;
6642;SDS011;3357;48.050;7.800;2023-03-19T06:45:13;6.77;;;1.83;;
6642;SDS011;3357;48.050;7.800;2023-03-19T06:47:42;2.97;;;1.10;;
6642;SDS011;3357;48.050;7.800;2023-03-19T06:50:08;1.87;;;1.30;;
6642;SDS011;3357;48.050;7.800;2023-03-19T06:52:34;1.43;;;1.10;;
6642;SDS011;3357;48.050;7.800;2023-03-19T06:54:59;1.97;;;1.10;;
6642;SDS011;3357;48.050;7.800;2023-03-19T06:57:25;2.80;;;1.00;;
6642;SDS011;3357;48.050;7.800;2023-03-19T06:59:50;3.90;;;1.07;;
6642;SDS011;3357;48.050;7.800;2023-03-19T07:02:16;1.10;;;1.00;;
6642;SDS011;3357;48.050;7.800;2023-03-19T07:04:41;1.23;;;1.10;;
6642;SDS011;3357;48.050;7.800;2023-03-19T07:07:06;1.20;;;1.10;;
6642;SDS011;3357;48.050;7.800;2023-03-19T07:09:32;2.63;;;1.37;;
6642;SDS011;3357;48.050;7.800;2023-03-19T07:11:57;2.20;;;1.03;;
6642;SDS011;3357;48.050;7.800;2023-03-19T07:14:22;1.10;;;1.10;;
6642;SDS011;3357;48.050;7.800;2023-03-19T07:16:48;1.30;;;1.17;;
6642;SDS011;3357;48.050;7.800;2023-03-19T07:19:13;1.60;;;1.13;;
6642;SDS011;3357;48.050;7.800;2023-03-19T07:21:38;4.00;;;1.40;;
6642;SDS011;3357;48.050;7.800;2023-03-19T07:24:04;3.27;;;1.20;;
6642;SDS011;3357;48.050;7.800;2023-03-19T07:26:29;1.33;;;1.20;;
6642;SDS011;3357;48.050;7.800;2023-03-19T07:28:55;1.53;;;1.10;;
6642;SDS011;3357;48.050;7.800;2023-03-19T07:31:20;1.20;;;1.10;;
6642;SDS011;3357;48.050;7.800;2023-03-19T07:33:46;1.93;;;1.07;;
6642;SDS011;3357;48.050;7.800;2023-03-19T07:36:11;2.43;;;1.30;;
6642;SDS011;3357;48.050;7.800;2023-03-19T07:38:36;1.83;;;1.73;;
6642;SDS011;3357;48.050;7.800;2023-03-19T07:41:02;2.93;;;1.20;;
6642;SDS011;3357;48.050;7.800;2023-03-19T07:43:27;3.57;;;1.43;;
6642;SDS011;3357;48.050;7.800;2023-03-19T07:45:53;2.10;;;1.17;;
6642;SDS011;3357;48.050;7.800;2023-03-19T07:48:18;2.20;;;1.50;;
6642;SDS011;3357;48.050;7.800;2023-03-19T07:50:43;3.63;;;1.20;;
6642;SDS011;3357;48.050;7.800;2023-03-19T07:53:09;1.20;;;1.10;;
6642;SDS011;3357;48.050;7.800;2023-03-19T07:55:35;4.03;;;1.53;;
6642;SDS011;3357;48.050;7.800;2023-03-19T07:58:01;4.20;;;1.23;;
6642;SDS011;3357;48.050;7.800;2023-03-19T08:00:26;2.67;;;1.60;;
6642;SDS011;3357;48.050;7.800;2023-03-19T08:02:52;3.33;;;1.57;;
6642;SDS011;3357;48.050;7.800;2023-03-19T08:05:17;5.07;;;1.30;;
6642;SDS011;3357;48.050;7.800;2023-03-19T08:07:42;4.40;;;1.53;;
6642;SDS011;3357;48.050;7.800;2023-03-19T08:10:09;5.70;;;1.53;;
6642;SDS011;3357;48.050;7.800;2023-03-19T08:12:35;2.50;;;1.50;;
6642;SDS011;3357;48.050;7.800;2023-03-19T08:15:05;2.20;;;1.10;;
6642;SDS011;3357;48.050;7.800;2023-03-19T08:17:31;3.13;;;1.43;;
6642;SDS011;3357;48.050;7.800;2023-03-19T08:20:02;2.17;;;1.30;;
6642;SDS011;3357;48.050;7.800;2023-03-19T08:22:47;2.57;;;1.60;;
6642;SDS011;3357;48.050;7.800;2023-03-19T08:25:13;5.90;;;1.23;;
6642;SDS011;3357;48.050;7.800;2023-03-19T08:27:39;3.10;;;1.20;;
6642;SDS011;3357;48.050;7.800;2023-03-19T08:30:06;2.83;;;1.60;;
6642;SDS011;3357;48.050;7.800;2023-03-19T08:32:32;1.80;;;1.40;;
6642;SDS011;3357;48.050;7.800;2023-03-19T08:34:58;2.97;;;1.20;;
6642;SDS011;3357;48.050;7.800;2023-03-19T08:37:24;3.17;;;1.73;;
6642;SDS011;3357;48.050;7.800;2023-03-19T08:39:50;10.57;;;1.37;;
6642;SDS011;3357;48.050;7.800;2023-03-19T08:42:16;11.07;;;1.57;;
6642;SDS011;3357;48.050;7.800;2023-03-19T08:44:42;5.20;;;1.40;;
6642;SDS011;3357;48.050;7.800;2023-03-19T08:47:07;4.80;;;1.50;;
6642;SDS011;3357;48.050;7.800;2023-03-19T08:49:32;2.73;;;1.43;;
6642;SDS011;3357;48.050;7.800;2023-03-19T08:51:58;2.70;;;1.83;;
6642;SDS011;3357;48.050;7.800;2023-03-19T08:54:23;4.83;;;1.50;;
6642;SDS011;3357;48.050;7.800;2023-03-19T08:56:48;1.37;;;1.27;;
6642;SDS011;3357;48.050;7.800;2023-03-19T08:59:13;4.43;;;1.30;;
6642;SDS011;3357;48.050;7.800;2023-03-19T09:01:39;4.80;;;1.67;;
6642;SDS011;3357;48.050;7.800;2023-03-19T09:04:04;1.33;;;1.03;;
6642;SDS011;3357;48.050;7.800;2023-03-19T09:06:29;2.07;;;1.43;;
6642;SDS011;3357;48.050;7.800;2023-03-19T09:08:55;4.83;;;1.33;;
6642;SDS011;3357;48.050;7.800;2023-03-19T09:11:20;2.53;;;1.20;;
6642;SDS011;3357;48.050;7.800;2023-03-19T09:13:47;2.93;;;1.33;;
6642;SDS011;3357;48.050;7.800;2023-03-19T09:16:12;2.60;;;1.13;;
6642;SDS011;3357;48.050;7.800;2023-03-19T09:18:37;9.17;;;1.37;;
6642;SDS011;3357;48.050;7.800;2023-03-19T09:21:03;2.10;;;1.10;;
6642;SDS011;3357;48.050;7.800;2023-03-19T09:23:28;5.30;;;1.63;;
6642;SDS011;3357;48.050;7.800;2023-03-19T09:25:53;2.60;;;1.30;;
6642;SDS011;3357;48.050;7.800;2023-03-19T09:28:19;2.60;;;1.40;;
6642;SDS011;3357;48.050;7.800;2023-03-19T09:30:45;6.43;;;1.33;;
6642;SDS011;3357;48.050;7.800;2023-03-19T09:33:12;4.17;;;1.43;;
6642;SDS011;3357;48.050;7.800;2023-03-19T09:35:37;2.87;;;1.10;;
6642;SDS011;3357;48.050;7.800;2023-03-19T09:38:03;2.00;;;1.33;;
6642;SDS011;3357;48.050;7.800;2023-03-19T09:40:37;2.30;;;1.40;;
6642;SDS011;3357;48.050;7.800;2023-03-19T09:45:40;1.40;;;1.20;;
6642;SDS011;3357;48.050;7.800;2023-03-19T09:48:06;4.90;;;1.30;;
6642;SDS011;3357;48.050;7.800;2023-03-19T09:50:37;3.80;;;1.33;;
6642;SDS011;3357;48.050;7.800;2023-03-19T09:55:42;5.13;;;1.87;;
6642;SDS011;3357;48.050;7.800;2023-03-19T09:58:16;1.70;;;1.10;;
6642;SDS011;3357;48.050;7.800;2023-03-19T10:00:45;3.93;;;1.30;;
6642;SDS011;3357;48.050;7.800;2023-03-19T10:06:13;7.83;;;2.60;;
6642;SDS011;3357;48.050;7.800;2023-03-19T10:16:34;2.50;;;1.47;;
6642;SDS011;3357;48.050;7.800;2023-03-19T10:19:02;1.73;;;1.40;;
6642;SDS011;3357;48.050;7.800;2023-03-19T10:21:30;5.83;;;1.87;;
6642;SDS011;3357;48.050;7.800;2023-03-19T10:24:03;4.47;;;1.40;;
6642;SDS011;3357;48.050;7.800;2023-03-19T10:26:32;1.77;;;1.10;;
6642;SDS011;3357;48.050;7.800;2023-03-19T10:36:39;2.10;;;0.90;;
6642;SDS011;3357;48.050;7.800;2023-03-19T10:39:04;5.77;;;1.00;;
6642;SDS011;3357;48.050;7.800;2023-03-19T10:44:13;1.93;;;1.07;;
6642;SDS011;3357;48.050;7.800;2023-03-19T10:46:52;1.90;;;1.00;;
6642;SDS011;3357;48.050;7.800;2023-03-19T10:49:17;2.43;;;1.07;;
6642;SDS011;3357;48.050;7.800;2023-03-19T10:51:44;2.13;;;0.80;;
6642;SDS011;3357;48.050;7.800;2023-03-19T10:54:25;2.27;;;1.00;;
6642;SDS011;3357;48.050;7.800;2023-03-19T10:56:55;1.97;;;1.20;;
6642;SDS011;3357;48.050;7.800;2023-03-19T10:59:23;3.07;;;1.10;;
6642;SDS011;3357;48.050;7.800;2023-03-19T11:02:01;1.63;;;1.10;;
6642;SDS011;3357;48.050;7.800;2023-03-19T11:04:38;1.40;;;1.03;;
6642;SDS011;3357;48.050;7.800;2023-03-19T11:07:10;1.87;;;1.20;;
6642;SDS011;3357;48.050;7.800;2023-03-19T11:09:38;2.30;;;1.20;;
6642;SDS011;3357;48.050;7.800;2023-03-19T11:12:21;1.63;;;1.20;;
6642;SDS011;3357;48.050;7.800;2023-03-19T11:14:57;3.20;;;1.13;;
6642;SDS011;3357;48.050;7.800;2023-03-19T11:17:27;2.40;;;1.00;;
6642;SDS011;3357;48.050;7.800;2023-03-19T11:20:07;1.30;;;1.20;;
6642;SDS011;3357;48.050;7.800;2023-03-19T11:22:43;1.33;;;1.20;;
6642;SDS011;3357;48.050;7.800;2023-03-19T11:30:56;4.20;;;1.00;;
6642;SDS011;3357;48.050;7.800;2023-03-19T11:50:00;1.47;;;0.90;;
6642;SDS011;3357;48.050;7.800;2023-03-19T11:52:47;1.03;;;0.97;;
6642;SDS011;3357;48.050;7.800;2023-03-19T11:55:29;1.07;;;0.97;;
6642;SDS011;3357;48.050;7.800;2023-03-19T11:58:04;2.70;;;1.20;;
6642;SDS011;3357;48.050;7.800;2023-03-19T12:00:45;1.70;;;1.10;;
6642;SDS011;3357;48.050;7.800;2023-03-19T12:03:26;0.90;;;0.90;;
6642;SDS011;3357;48.050;7.800;2023-03-19T12:05:59;1.37;;;0.90;;
6642;SDS011;3357;48.050;7.800;2023-03-19T12:08:32;1.30;;;0.90;;
6642;SDS011;3357;48.050;7.800;2023-03-19T12:11:05;3.07;;;0.90;;
6642;SDS011;3357;48.050;7.800;2023-03-19T12:13:41;2.20;;;0.80;;
6642;SDS011;3357;48.050;7.800;2023-03-19T12:19:26;1.07;;;0.90;;
6642;SDS011;3357;48.050;7.800;2023-03-19T12:22:26;2.20;;;0.80;;
6642;SDS011;3357;48.050;7.800;2023-03-19T12:25:02;2.60;;;1.07;;
6642;SDS011;3357;48.050;7.800;2023-03-19T12:35:45;0.70;;;0.70;;
6642;SDS011;3357;48.050;7.800;2023-03-19T12:38:18;2.03;;;0.77;;
6642;SDS011;3357;48.050;7.800;2023-03-19T12:41:08;0.60;;;0.60;;
6642;SDS011;3357;48.050;7.800;2023-03-19T12:49:18;4.40;;;1.20;;
6642;SDS011;3357;48.050;7.800;2023-03-19T12:51:47;1.00;;;1.00;;
6642;SDS011;3357;48.050;7.800;2023-03-19T12:54:18;3.57;;;0.90;;
6642;SDS011;3357;48.050;7.800;2023-03-19T12:56:54;3.73;;;1.23;;
6642;SDS011;3357;48.050;7.800;2023-03-19T13:02:23;5.23;;;1.20;;
6642;SDS011;3357;48.050;7.800;2023-03-19T13:05:15;1.80;;;0.83;;
6642;SDS011;3357;48.050;7.800;2023-03-19T13:07:52;2.80;;;0.90;;
6642;SDS011;3357;48.050;7.800;2023-03-19T13:10:24;1.60;;;1.00;;
6642;SDS011;3357;48.050;7.800;2023-03-19T13:12:50;2.40;;;1.27;;
6642;SDS011;3357;48.050;7.800;2023-03-19T13:23:10;3.23;;;1.30;;
6642;SDS011;3357;48.050;7.800;2023-03-19T13:25:39;7.57;;;1.20;;
6642;SDS011;3357;48.050;7.800;2023-03-19T13:28:08;3.70;;;1.20;;
6642;SDS011;3357;48.050;7.800;2023-03-19T13:30:35;2.23;;;0.90;;
6642;SDS011;3357;48.050;7.800;2023-03-19T13:33:04;2.00;;;0.87;;
6642;SDS011;3357;48.050;7.800;2023-03-19T13:35:33;2.10;;;0.90;;
6642;SDS011;3357;48.050;7.800;2023-03-19T13:38:02;1.93;;;1.10;;
6642;SDS011;3357;48.050;7.800;2023-03-19T13:43:18;3.40;;;0.90;;
6642;SDS011;3357;48.050;7.800;2023-03-19T13:46:08;2.27;;;0.87;;
6642;SDS011;3357;48.050;7.800;2023-03-19T13:49:08;1.23;;;0.80;;
6642;SDS011;3357;48.050;7.800;2023-03-19T13:51:54;4.67;;;1.03;;
6642;SDS011;3357;48.050;7.800;2023-03-19T13:54:40;1.10;;;1.00;;
6642;SDS011;3357;48.050;7.800;2023-03-19T13:59:40;2.20;;;1.00;;
6642;SDS011;3357;48.050;7.800;2023-03-19T14:04:56;0.80;;;0.80;;
6642;SDS011;3357;48.050;7.800;2023-03-19T14:07:25;2.77;;;0.80;;
6642;SDS011;3357;48.050;7.800;2023-03-19T14:12:36;3.17;;;0.90;;
6642;SDS011;3357;48.050;7.800;2023-03-19T14:17:35;1.23;;;1.13;;
6642;SDS011;3357;48.050;7.800;2023-03-19T14:22:40;1.27;;;0.90;;
6642;SDS011;3357;48.050;7.800;2023-03-19T14:31:05;1.53;;;0.83;;
6642;SDS011;3357;48.050;7.800;2023-03-19T14:33:42;1.93;;;0.70;;
6642;SDS011;3357;48.050;7.800;2023-03-19T14:36:14;0.90;;;0.80;;
6642;SDS011;3357;48.050;7.800;2023-03-19T14:38:49;1.70;;;0.60;;
6642;SDS011;3357;48.050;7.800;2023-03-19T14:41:21;2.87;;;0.77;;
6642;SDS011;3357;48.050;7.800;2023-03-19T14:52:06;1.37;;;0.67;;
6642;SDS011;3357;48.050;7.800;2023-03-19T14:54:49;0.93;;;0.70;;
6642;SDS011;3357;48.050;7.800;2023-03-19T14:57:35;1.93;;;0.70;;
6642;SDS011;3357;48.050;7.800;2023-03-19T15:00:01;0.87;;;0.77;;
6642;SDS011;3357;48.050;7.800;2023-03-19T15:05:12;0.80;;;0.70;;
6642;SDS011;3357;48.050;7.800;2023-03-19T15:07:48;1.27;;;0.73;;
6642;SDS011;3357;48.050;7.800;2023-03-19T15:10:16;3.03;;;0.80;;
6642;SDS011;3357;48.050;7.800;2023-03-19T15:15:33;0.83;;;0.83;;
6642;SDS011;3357;48.050;7.800;2023-03-19T15:18:06;1.57;;;1.30;;
6642;SDS011;3357;48.050;7.800;2023-03-19T15:20:35;1.57;;;0.90;;
6642;SDS011;3357;48.050;7.800;2023-03-19T15:23:04;1.30;;;1.20;;
6642;SDS011;3357;48.050;7.800;2023-03-19T15:25:31;0.70;;;0.70;;
6642;SDS011;3357;48.050;7.800;2023-03-19T15:28:03;1.00;;;0.97;;
6642;SDS011;3357;48.050;7.800;2023-03-19T15:30:32;0.90;;;0.90;;
6642;SDS011;3357;48.050;7.800;2023-03-19T15:32:58;2.73;;;1.07;;
6642;SDS011;3357;48.050;7.800;2023-03-19T15:35:25;2.23;;;1.10;;
6642;SDS011;3357;48.050;7.800;2023-03-19T15:37:53;2.27;;;0.83;;
6642;SDS011;3357;48.050;7.800;2023-03-19T15:40:20;0.80;;;0.80;;
6642;SDS011;3357;48.050;7.800;2023-03-19T15:42:47;1.53;;;0.70;;
6642;SDS011;3357;48.050;7.800;2023-03-19T15:45:15;2.43;;;0.80;;
6642;SDS011;3357;48.050;7.800;2023-03-19T15:50:19;1.47;;;0.80;;
6642;SDS011;3357;48.050;7.800;2023-03-19T15:52:49;1.50;;;0.77;;
6642;SDS011;3357;48.050;7.800;2023-03-19T15:55:17;1.57;;;1.00;;
6642;SDS011;3357;48.050;7.800;2023-03-19T15:57:42;1.30;;;0.80;;
6642;SDS011;3357;48.050;7.800;2023-03-19T16:00:09;1.33;;;1.07;;
6642;SDS011;3357;48.050;7.800;2023-03-19T16:02:41;1.00;;;1.00;;
6642;SDS011;3357;48.050;7.800;2023-03-19T16:05:21;3.57;;;1.03;;
6642;SDS011;3357;48.050;7.800;2023-03-19T16:07:56;0.87;;;0.83;;
6642;SDS011;3357;48.050;7.800;2023-03-19T16:12:52;1.10;;;0.87;;
6642;SDS011;3357;48.050;7.800;2023-03-19T16:15:22;1.57;;;1.30;;
6642;SDS011;3357;48.050;7.800;2023-03-19T16:20:42;0.90;;;0.90;;
6642;SDS011;3357;48.050;7.800;2023-03-19T16:23:16;0.70;;;0.70;;
6642;SDS011;3357;48.050;7.800;2023-03-19T16:25:45;1.63;;;0.80;;
6642;SDS011;3357;48.050;7.800;2023-03-19T16:28:15;4.87;;;1.00;;
6642;SDS011;3357;48.050;7.800;2023-03-19T16:30:44;1.67;;;1.00;;
6642;SDS011;3357;48.050;7.800;2023-03-19T16:33:10;3.50;;;2.00;;
6642;SDS011;3357;48.050;7.800;2023-03-19T16:35:36;2.30;;;1.17;;
6642;SDS011;3357;48.050;7.800;2023-03-19T16:38:21;0.90;;;0.90;;
6642;SDS011;3357;48.050;7.800;2023-03-19T16:40:48;0.90;;;0.90;;
6642;SDS011;3357;48.050;7.800;2023-03-19T16:45:41;1.90;;;0.83;;
6642;SDS011;3357;48.050;7.800;2023-03-19T16:48:07;1.00;;;0.90;;
6642;SDS011;3357;48.050;7.800;2023-03-19T16:50:37;2.00;;;1.37;;
6642;SDS011;3357;48.050;7.800;2023-03-19T16:53:05;2.27;;;1.10;;
6642;SDS011;3357;48.050;7.800;2023-03-19T16:55:42;1.47;;;1.20;;
6642;SDS011;3357;48.050;7.800;2023-03-19T16:58:12;0.80;;;0.80;;
6642;SDS011;3357;48.050;7.800;2023-03-19T17:00:39;0.80;;;0.80;;
6642;SDS011;3357;48.050;7.800;2023-03-19T17:03:14;1.00;;;0.90;;
6642;SDS011;3357;48.050;7.800;2023-03-19T17:05:41;1.17;;;0.80;;
6642;SDS011;3357;48.050;7.800;2023-03-19T17:08:06;1.07;;;0.97;;
6642;SDS011;3357;48.050;7.800;2023-03-19T17:10:33;1.00;;;0.80;;
6642;SDS011;3357;48.050;7.800;2023-03-19T17:12:59;0.90;;;0.90;;
6642;SDS011;3357;48.050;7.800;2023-03-19T17:17:50;1.73;;;1.20;;
6642;SDS011;3357;48.050;7.800;2023-03-19T17:20:23;2.00;;;1.07;;
6642;SDS011;3357;48.050;7.800;2023-03-19T17:22:52;5.43;;;1.00;;
6642;SDS011;3357;48.050;7.800;2023-03-19T17:25:17;0.90;;;0.90;;
6642;SDS011;3357;48.050;7.800;2023-03-19T17:27:43;2.67;;;1.30;;